sensor_id;sensor_type;location;lat;lon;timestamp;P1;durP1;ratioP1;P2;durP2;ratioP2
22024;SDS011;11176;51.448;6.650;2022-10-30T00:02:20;13.05;;;4.25;;
22024;SDS011;11176;51.448;6.650;2022-10-30T00:04:47;11.05;;;4.70;;
22024;SDS011;11176;51.448;6.650;2022-10-30T00:07:13;13.02;;;4.43;;
22024;SDS011;11176;51.448;6.650;2022-10-30T00:09:40;8.88;;;4.20;;
22024;SDS011;11176;51.448;6.650;2022-10-30T00:12:06;8.90;;;4.32;;
22024;SDS011;11176;51.448;6.650;2022-10-30T00:14:32;11.52;;;4.68;;
22024;SDS011;11176;51.448;6.650;2022-10-30T00:16:59;10.02;;;4.60;;
22024;SDS011;11176;51.448;6.650;2022-10-30T00:19:25;12.15;;;4.78;;
22024;SDS011;11176;51.448;6.650;2022-10-30T00:21:52;11.68;;;4.35;;
22024;SDS011;11176;51.448;6.650;2022-10-30T00:24:18;10.02;;;4.55;;
22024;SDS011;11176;51.448;6.650;2022-10-30T00:26:45;11.23;;;4.57;;
22024;SDS011;11176;51.448;6.650;2022-10-30T00:29:11;14.93;;;4.53;;
22024;SDS011;11176;51.448;6.650;2022-10-30T00:31:37;15.18;;;5.38;;
22024;SDS011;11176;51.448;6.650;2022-10-30T00:34:04;11.18;;;4.97;;
22024;SDS011;11176;51.448;6.650;2022-10-30T00:36:30;12.35;;;5.38;;
22024;SDS011;11176;51.448;6.650;2022-10-30T00:38:57;14.82;;;5.55;;
22024;SDS011;11176;51.448;6.650;2022-10-30T00:41:23;12.85;;;5.28;;
22024;SDS011;11176;51.448;6.650;2022-10-30T00:43:50;20.15;;;5.45;;
22024;SDS011;11176;51.448;6.650;2022-10-30T00:46:20;13.73;;;4.97;;
22024;SDS011;11176;51.448;6.650;2022-10-30T00:49:02;12.05;;;5.10;;
22024;SDS011;11176;51.448;6.650;2022-10-30T00:51:34;17.55;;;5.47;;
22024;SDS011;11176;51.448;6.650;2022-10-30T00:54:03;12.93;;;4.90;;
22024;SDS011;11176;51.448;6.650;2022-10-30T00:56:31;18.77;;;5.32;;
22024;SDS011;11176;51.448;6.650;2022-10-30T00:59:00;14.98;;;5.30;;
22024;SDS011;11176;51.448;6.650;2022-10-30T01:01:31;8.90;;;4.53;;
22024;SDS011;11176;51.448;6.650;2022-10-30T01:04:02;11.18;;;4.65;;
22024;SDS011;11176;51.448;6.650;2022-10-30T01:06:33;15.52;;;4.93;;
22024;SDS011;11176;51.448;6.650;2022-10-30T01:09:03;11.43;;;5.07;;
22024;SDS011;11176;51.448;6.650;2022-10-30T01:11:30;10.10;;;5.00;;
22024;SDS011;11176;51.448;6.650;2022-10-30T01:13:57;14.10;;;5.40;;
22024;SDS011;11176;51.448;6.650;2022-10-30T01:22:49;11.45;;;5.75;;
22024;SDS011;11176;51.448;6.650;2022-10-30T01:33:36;17.98;;;5.75;;
22024;SDS011;11176;51.448;6.650;2022-10-30T01:38:55;9.93;;;5.65;;
22024;SDS011;11176;51.448;6.650;2022-10-30T01:41:25;12.35;;;5.88;;
22024;SDS011;11176;51.448;6.650;2022-10-30T01:43:57;14.00;;;5.45;;
22024;SDS011;11176;51.448;6.650;2022-10-30T01:52:34;14.25;;;5.43;;
22024;SDS011;11176;51.448;6.650;2022-10-30T01:58:04;12.48;;;5.47;;
22024;SDS011;11176;51.448;6.650;2022-10-30T02:00:52;13.63;;;5.53;;
22024;SDS011;11176;51.448;6.650;2022-10-30T02:03:20;11.80;;;5.28;;
22024;SDS011;11176;51.448;6.650;2022-10-30T02:05:48;10.68;;;5.30;;
22024;SDS011;11176;51.448;6.650;2022-10-30T02:08:17;12.40;;;5.50;;
22024;SDS011;11176;51.448;6.650;2022-10-30T02:10:44;15.32;;;5.93;;
22024;SDS011;11176;51.448;6.650;2022-10-30T02:13:13;15.88;;;6.05;;
22024;SDS011;11176;51.448;6.650;2022-10-30T02:15:41;10.98;;;5.82;;
22024;SDS011;11176;51.448;6.650;2022-10-30T02:18:09;12.10;;;5.57;;
22024;SDS011;11176;51.448;6.650;2022-10-30T02:20:38;10.82;;;4.82;;
22024;SDS011;11176;51.448;6.650;2022-10-30T02:23:05;10.32;;;5.05;;
22024;SDS011;11176;51.448;6.650;2022-10-30T02:25:33;12.57;;;6.63;;
22024;SDS011;11176;51.448;6.650;2022-10-30T02:28:00;12.43;;;5.55;;
22024;SDS011;11176;51.448;6.650;2022-10-30T02:30:29;14.98;;;5.55;;
22024;SDS011;11176;51.448;6.650;2022-10-30T02:32:55;12.93;;;5.53;;
22024;SDS011;11176;51.448;6.650;2022-10-30T02:35:22;13.38;;;5.90;;
22024;SDS011;11176;51.448;6.650;2022-10-30T02:37:50;12.40;;;6.25;;
22024;SDS011;11176;51.448;6.650;2022-10-30T02:40:17;16.50;;;6.32;;
22024;SDS011;11176;51.448;6.650;2022-10-30T02:42:43;11.20;;;5.57;;
22024;SDS011;11176;51.448;6.650;2022-10-30T02:45:09;11.75;;;5.80;;
22024;SDS011;11176;51.448;6.650;2022-10-30T02:47:36;12.77;;;5.35;;
22024;SDS011;11176;51.448;6.650;2022-10-30T02:50:03;14.70;;;5.65;;
22024;SDS011;11176;51.448;6.650;2022-10-30T02:52:33;14.98;;;5.97;;
22024;SDS011;11176;51.448;6.650;2022-10-30T02:54:59;14.55;;;5.78;;
22024;SDS011;11176;51.448;6.650;2022-10-30T02:57:26;10.93;;;6.00;;
22024;SDS011;11176;51.448;6.650;2022-10-30T02:59:53;13.75;;;6.20;;
22024;SDS011;11176;51.448;6.650;2022-10-30T03:02:20;14.45;;;6.43;;
22024;SDS011;11176;51.448;6.650;2022-10-30T03:04:48;12.93;;;6.28;;
22024;SDS011;11176;51.448;6.650;2022-10-30T03:07:14;11.93;;;5.95;;
22024;SDS011;11176;51.448;6.650;2022-10-30T03:09:41;11.55;;;6.50;;
22024;SDS011;11176;51.448;6.650;2022-10-30T03:12:07;12.10;;;5.82;;
22024;SDS011;11176;51.448;6.650;2022-10-30T03:14:34;13.90;;;6.07;;
22024;SDS011;11176;51.448;6.650;2022-10-30T03:17:02;11.68;;;5.95;;
22024;SDS011;11176;51.448;6.650;2022-10-30T03:19:28;13.85;;;6.45;;
22024;SDS011;11176;51.448;6.650;2022-10-30T03:21:55;13.82;;;5.95;;
22024;SDS011;11176;51.448;6.650;2022-10-30T03:24:21;15.68;;;6.75;;
22024;SDS011;11176;51.448;6.650;2022-10-30T03:26:48;15.43;;;6.30;;
22024;SDS011;11176;51.448;6.650;2022-10-30T03:29:14;15.93;;;7.18;;
22024;SDS011;11176;51.448;6.650;2022-10-30T03:31:41;13.43;;;6.20;;
22024;SDS011;11176;51.448;6.650;2022-10-30T03:34:12;15.50;;;6.75;;
22024;SDS011;11176;51.448;6.650;2022-10-30T03:36:40;13.77;;;6.80;;
22024;SDS011;11176;51.448;6.650;2022-10-30T03:39:06;13.93;;;6.82;;
22024;SDS011;11176;51.448;6.650;2022-10-30T03:41:34;13.65;;;6.78;;
22024;SDS011;11176;51.448;6.650;2022-10-30T03:44:00;12.80;;;6.40;;
22024;SDS011;11176;51.448;6.650;2022-10-30T03:46:27;13.13;;;6.43;;
22024;SDS011;11176;51.448;6.650;2022-10-30T03:49:02;18.30;;;7.97;;
22024;SDS011;11176;51.448;6.650;2022-10-30T03:51:29;12.68;;;6.32;;
22024;SDS011;11176;51.448;6.650;2022-10-30T03:53:56;15.23;;;6.93;;
22024;SDS011;11176;51.448;6.650;2022-10-30T03:56:24;12.00;;;6.88;;
22024;SDS011;11176;51.448;6.650;2022-10-30T03:58:54;15.55;;;7.28;;
22024;SDS011;11176;51.448;6.650;2022-10-30T04:01:22;11.57;;;6.63;;
22024;SDS011;11176;51.448;6.650;2022-10-30T04:03:53;14.60;;;6.82;;
22024;SDS011;11176;51.448;6.650;2022-10-30T04:06:21;17.23;;;7.25;;
22024;SDS011;11176;51.448;6.650;2022-10-30T04:08:48;14.60;;;7.05;;
22024;SDS011;11176;51.448;6.650;2022-10-30T04:11:15;12.68;;;6.97;;
22024;SDS011;11176;51.448;6.650;2022-10-30T04:13:42;13.27;;;6.32;;
22024;SDS011;11176;51.448;6.650;2022-10-30T04:16:10;13.60;;;7.30;;
22024;SDS011;11176;51.448;6.650;2022-10-30T04:18:37;13.93;;;7.32;;
22024;SDS011;11176;51.448;6.650;2022-10-30T04:21:04;11.82;;;6.63;;
22024;SDS011;11176;51.448;6.650;2022-10-30T04:23:33;13.82;;;7.75;;
22024;SDS011;11176;51.448;6.650;2022-10-30T04:25:59;12.85;;;6.50;;
22024;SDS011;11176;51.448;6.650;2022-10-30T04:28:27;12.00;;;7.60;;
22024;SDS011;11176;51.448;6.650;2022-10-30T04:30:53;14.25;;;7.70;;
22024;SDS011;11176;51.448;6.650;2022-10-30T04:33:24;9.98;;;6.43;;
22024;SDS011;11176;51.448;6.650;2022-10-30T04:35:50;12.43;;;6.75;;
22024;SDS011;11176;51.448;6.650;2022-10-30T04:38:19;14.20;;;7.32;;
22024;SDS011;11176;51.448;6.650;2022-10-30T04:40:46;14.55;;;7.38;;
22024;SDS011;11176;51.448;6.650;2022-10-30T04:43:14;17.13;;;7.53;;
22024;SDS011;11176;51.448;6.650;2022-10-30T04:45:42;13.88;;;7.50;;
22024;SDS011;11176;51.448;6.650;2022-10-30T04:48:11;17.63;;;7.20;;
22024;SDS011;11176;51.448;6.650;2022-10-30T04:50:40;16.10;;;6.95;;
22024;SDS011;11176;51.448;6.650;2022-10-30T04:53:12;13.43;;;7.25;;
22024;SDS011;11176;51.448;6.650;2022-10-30T04:55:41;14.57;;;7.20;;
22024;SDS011;11176;51.448;6.650;2022-10-30T04:58:10;16.58;;;8.27;;
22024;SDS011;11176;51.448;6.650;2022-10-30T05:00:39;15.63;;;7.55;;
22024;SDS011;11176;51.448;6.650;2022-10-30T05:03:19;15.88;;;6.65;;
22024;SDS011;11176;51.448;6.650;2022-10-30T05:05:47;18.02;;;7.22;;
22024;SDS011;11176;51.448;6.650;2022-10-30T05:08:23;12.52;;;6.82;;
22024;SDS011;11176;51.448;6.650;2022-10-30T05:10:50;14.07;;;7.00;;
22024;SDS011;11176;51.448;6.650;2022-10-30T05:13:17;12.65;;;7.90;;
22024;SDS011;11176;51.448;6.650;2022-10-30T05:15:43;12.60;;;7.13;;
22024;SDS011;11176;51.448;6.650;2022-10-30T05:18:10;14.85;;;6.95;;
22024;SDS011;11176;51.448;6.650;2022-10-30T05:20:36;14.77;;;7.00;;
22024;SDS011;11176;51.448;6.650;2022-10-30T05:23:03;14.27;;;7.32;;
22024;SDS011;11176;51.448;6.650;2022-10-30T05:25:30;17.85;;;6.65;;
22024;SDS011;11176;51.448;6.650;2022-10-30T05:28:03;14.93;;;7.05;;
22024;SDS011;11176;51.448;6.650;2022-10-30T05:30:37;20.00;;;7.50;;
22024;SDS011;11176;51.448;6.650;2022-10-30T05:33:11;14.90;;;7.18;;
22024;SDS011;11176;51.448;6.650;2022-10-30T05:35:38;13.13;;;7.13;;
22024;SDS011;11176;51.448;6.650;2022-10-30T05:38:05;13.25;;;6.45;;
22024;SDS011;11176;51.448;6.650;2022-10-30T05:40:33;13.65;;;7.18;;
22024;SDS011;11176;51.448;6.650;2022-10-30T05:43:00;14.32;;;7.05;;
22024;SDS011;11176;51.448;6.650;2022-10-30T05:45:27;12.90;;;6.30;;
22024;SDS011;11176;51.448;6.650;2022-10-30T05:47:56;13.48;;;7.18;;
22024;SDS011;11176;51.448;6.650;2022-10-30T05:50:30;11.27;;;7.38;;
22024;SDS011;11176;51.448;6.650;2022-10-30T05:53:18;15.80;;;8.02;;
22024;SDS011;11176;51.448;6.650;2022-10-30T05:55:45;15.65;;;6.88;;
22024;SDS011;11176;51.448;6.650;2022-10-30T05:58:17;15.27;;;6.83;;
22024;SDS011;11176;51.448;6.650;2022-10-30T06:00:44;10.23;;;6.40;;
22024;SDS011;11176;51.448;6.650;2022-10-30T06:03:16;11.50;;;6.40;;
22024;SDS011;11176;51.448;6.650;2022-10-30T06:05:43;19.65;;;6.57;;
22024;SDS011;11176;51.448;6.650;2022-10-30T06:08:12;13.63;;;7.15;;
22024;SDS011;11176;51.448;6.650;2022-10-30T06:10:39;13.68;;;6.90;;
22024;SDS011;11176;51.448;6.650;2022-10-30T06:13:25;17.52;;;7.10;;
22024;SDS011;11176;51.448;6.650;2022-10-30T06:15:58;15.05;;;6.70;;
22024;SDS011;11176;51.448;6.650;2022-10-30T06:18:36;18.70;;;6.78;;
22024;SDS011;11176;51.448;6.650;2022-10-30T06:21:08;14.02;;;6.68;;
22024;SDS011;11176;51.448;6.650;2022-10-30T06:23:44;12.68;;;6.60;;
22024;SDS011;11176;51.448;6.650;2022-10-30T06:26:36;14.00;;;6.93;;
22024;SDS011;11176;51.448;6.650;2022-10-30T06:29:07;12.45;;;6.57;;
22024;SDS011;11176;51.448;6.650;2022-10-30T06:31:34;12.48;;;6.60;;
22024;SDS011;11176;51.448;6.650;2022-10-30T06:34:01;12.20;;;6.18;;
22024;SDS011;11176;51.448;6.650;2022-10-30T06:36:29;12.43;;;6.50;;
22024;SDS011;11176;51.448;6.650;2022-10-30T06:38:57;14.73;;;6.93;;
22024;SDS011;11176;51.448;6.650;2022-10-30T06:41:27;12.68;;;6.63;;
22024;SDS011;11176;51.448;6.650;2022-10-30T06:44:00;14.05;;;6.22;;
22024;SDS011;11176;51.448;6.650;2022-10-30T06:46:29;10.05;;;5.90;;
22024;SDS011;11176;51.448;6.650;2022-10-30T06:48:59;11.50;;;6.47;;
22024;SDS011;11176;51.448;6.650;2022-10-30T06:51:26;10.75;;;7.03;;
22024;SDS011;11176;51.448;6.650;2022-10-30T06:53:53;14.38;;;7.22;;
22024;SDS011;11176;51.448;6.650;2022-10-30T06:56:37;16.13;;;6.72;;
22024;SDS011;11176;51.448;6.650;2022-10-30T06:59:13;12.75;;;6.75;;
22024;SDS011;11176;51.448;6.650;2022-10-30T07:01:54;11.85;;;6.38;;
22024;SDS011;11176;51.448;6.650;2022-10-30T07:04:36;12.38;;;5.85;;
22024;SDS011;11176;51.448;6.650;2022-10-30T07:07:03;9.10;;;6.10;;
22024;SDS011;11176;51.448;6.650;2022-10-30T07:09:30;12.25;;;6.22;;
22024;SDS011;11176;51.448;6.650;2022-10-30T07:11:57;13.55;;;6.47;;
22024;SDS011;11176;51.448;6.650;2022-10-30T07:14:49;11.52;;;6.03;;
22024;SDS011;11176;51.448;6.650;2022-10-30T07:17:27;13.10;;;6.35;;
22024;SDS011;11176;51.448;6.650;2022-10-30T07:19:58;15.57;;;6.18;;
22024;SDS011;11176;51.448;6.650;2022-10-30T07:22:24;13.85;;;6.97;;
22024;SDS011;11176;51.448;6.650;2022-10-30T07:24:52;13.05;;;6.57;;
22024;SDS011;11176;51.448;6.650;2022-10-30T07:27:42;15.60;;;6.78;;
22024;SDS011;11176;51.448;6.650;2022-10-30T07:30:31;11.25;;;6.22;;
22024;SDS011;11176;51.448;6.650;2022-10-30T07:33:14;12.55;;;6.60;;
22024;SDS011;11176;51.448;6.650;2022-10-30T07:35:52;12.20;;;6.57;;
22024;SDS011;11176;51.448;6.650;2022-10-30T07:38:33;18.35;;;7.53;;
22024;SDS011;11176;51.448;6.650;2022-10-30T07:41:13;14.32;;;6.28;;
22024;SDS011;11176;51.448;6.650;2022-10-30T07:43:48;14.55;;;6.82;;
22024;SDS011;11176;51.448;6.650;2022-10-30T07:46:33;13.95;;;6.78;;
22024;SDS011;11176;51.448;6.650;2022-10-30T07:49:20;14.57;;;6.90;;
22024;SDS011;11176;51.448;6.650;2022-10-30T07:51:48;12.00;;;6.50;;
22024;SDS011;11176;51.448;6.650;2022-10-30T07:54:15;18.35;;;6.97;;
22024;SDS011;11176;51.448;6.650;2022-10-30T07:56:42;13.00;;;6.13;;
22024;SDS011;11176;51.448;6.650;2022-10-30T07:59:34;15.50;;;6.80;;
22024;SDS011;11176;51.448;6.650;2022-10-30T08:02:18;16.35;;;6.93;;
22024;SDS011;11176;51.448;6.650;2022-10-30T08:05:04;17.27;;;7.70;;
22024;SDS011;11176;51.448;6.650;2022-10-30T08:07:54;14.85;;;7.45;;
22024;SDS011;11176;51.448;6.650;2022-10-30T08:10:21;16.15;;;7.70;;
22024;SDS011;11176;51.448;6.650;2022-10-30T08:12:48;15.50;;;7.85;;
22024;SDS011;11176;51.448;6.650;2022-10-30T08:15:14;13.10;;;7.13;;
22024;SDS011;11176;51.448;6.650;2022-10-30T08:17:41;15.98;;;7.05;;
22024;SDS011;11176;51.448;6.650;2022-10-30T08:20:10;12.82;;;7.70;;
22024;SDS011;11176;51.448;6.650;2022-10-30T08:22:46;17.35;;;7.63;;
22024;SDS011;11176;51.448;6.650;2022-10-30T08:25:13;18.70;;;8.00;;
22024;SDS011;11176;51.448;6.650;2022-10-30T08:27:49;17.63;;;7.95;;
22024;SDS011;11176;51.448;6.650;2022-10-30T08:30:21;22.45;;;8.60;;
22024;SDS011;11176;51.448;6.650;2022-10-30T08:32:55;21.30;;;8.13;;
22024;SDS011;11176;51.448;6.650;2022-10-30T08:36:03;18.27;;;8.48;;
22024;SDS011;11176;51.448;6.650;2022-10-30T08:38:30;18.38;;;8.27;;
22024;SDS011;11176;51.448;6.650;2022-10-30T08:41:12;25.48;;;8.63;;
22024;SDS011;11176;51.448;6.650;2022-10-30T08:43:47;26.92;;;9.68;;
22024;SDS011;11176;51.448;6.650;2022-10-30T08:46:15;19.27;;;8.10;;
22024;SDS011;11176;51.448;6.650;2022-10-30T08:48:42;15.13;;;7.38;;
22024;SDS011;11176;51.448;6.650;2022-10-30T08:51:08;20.25;;;7.30;;
22024;SDS011;11176;51.448;6.650;2022-10-30T08:53:41;16.60;;;7.15;;
22024;SDS011;11176;51.448;6.650;2022-10-30T08:56:11;18.08;;;7.00;;
22024;SDS011;11176;51.448;6.650;2022-10-30T08:58:53;14.40;;;6.68;;
22024;SDS011;11176;51.448;6.650;2022-10-30T09:01:21;14.07;;;6.53;;
22024;SDS011;11176;51.448;6.650;2022-10-30T09:04:22;16.63;;;6.05;;
22024;SDS011;11176;51.448;6.650;2022-10-30T09:06:52;13.00;;;5.35;;
22024;SDS011;11176;51.448;6.650;2022-10-30T09:09:54;18.52;;;5.97;;
22024;SDS011;11176;51.448;6.650;2022-10-30T09:12:22;15.45;;;5.68;;
22024;SDS011;11176;51.448;6.650;2022-10-30T09:14:49;10.93;;;5.80;;
22024;SDS011;11176;51.448;6.650;2022-10-30T09:17:16;14.38;;;6.72;;
22024;SDS011;11176;51.448;6.650;2022-10-30T09:19:45;18.95;;;8.82;;
22024;SDS011;11176;51.448;6.650;2022-10-30T09:22:23;13.70;;;6.93;;
22024;SDS011;11176;51.448;6.650;2022-10-30T09:24:50;20.80;;;8.35;;
22024;SDS011;11176;51.448;6.650;2022-10-30T09:27:38;17.60;;;7.93;;
22024;SDS011;11176;51.448;6.650;2022-10-30T09:30:07;19.17;;;7.45;;
22024;SDS011;11176;51.448;6.650;2022-10-30T09:35:09;21.17;;;7.90;;
22024;SDS011;11176;51.448;6.650;2022-10-30T09:37:37;17.80;;;7.35;;
22024;SDS011;11176;51.448;6.650;2022-10-30T09:40:10;18.52;;;7.30;;
22024;SDS011;11176;51.448;6.650;2022-10-30T09:42:46;16.67;;;7.35;;
22024;SDS011;11176;51.448;6.650;2022-10-30T09:56:48;18.10;;;6.55;;
22024;SDS011;11176;51.448;6.650;2022-10-30T10:04:53;14.55;;;5.90;;
22024;SDS011;11176;51.448;6.650;2022-10-30T10:07:46;15.23;;;6.70;;
22024;SDS011;11176;51.448;6.650;2022-10-30T10:10:37;15.30;;;7.25;;
22024;SDS011;11176;51.448;6.650;2022-10-30T10:13:21;21.17;;;7.15;;
22024;SDS011;11176;51.448;6.650;2022-10-30T10:15:58;14.45;;;6.28;;
22024;SDS011;11176;51.448;6.650;2022-10-30T10:18:32;12.55;;;6.13;;
22024;SDS011;11176;51.448;6.650;2022-10-30T10:21:10;14.77;;;5.70;;
22024;SDS011;11176;51.448;6.650;2022-10-30T10:23:45;15.23;;;5.53;;
22024;SDS011;11176;51.448;6.650;2022-10-30T10:34:39;15.27;;;6.75;;
22024;SDS011;11176;51.448;6.650;2022-10-30T10:37:38;16.30;;;6.50;;
22024;SDS011;11176;51.448;6.650;2022-10-30T10:40:23;13.80;;;6.90;;
22024;SDS011;11176;51.448;6.650;2022-10-30T10:43:12;18.52;;;7.15;;
22024;SDS011;11176;51.448;6.650;2022-10-30T10:51:51;13.23;;;5.30;;
22024;SDS011;11176;51.448;6.650;2022-10-30T10:54:24;10.30;;;4.68;;
22024;SDS011;11176;51.448;6.650;2022-10-30T10:56:55;13.98;;;4.63;;
22024;SDS011;11176;51.448;6.650;2022-10-30T10:59:36;11.88;;;4.32;;
22024;SDS011;11176;51.448;6.650;2022-10-30T11:04:35;13.35;;;4.88;;
22024;SDS011;11176;51.448;6.650;2022-10-30T11:07:17;9.20;;;4.35;;
22024;SDS011;11176;51.448;6.650;2022-10-30T11:09:54;10.43;;;4.38;;
22024;SDS011;11176;51.448;6.650;2022-10-30T11:12:28;15.48;;;4.63;;
22024;SDS011;11176;51.448;6.650;2022-10-30T11:18:05;14.50;;;4.50;;
22024;SDS011;11176;51.448;6.650;2022-10-30T11:23:41;9.27;;;4.35;;
22024;SDS011;11176;51.448;6.650;2022-10-30T11:29:01;9.90;;;4.43;;
22024;SDS011;11176;51.448;6.650;2022-10-30T11:31:39;8.77;;;4.30;;
22024;SDS011;11176;51.448;6.650;2022-10-30T11:34:17;12.73;;;4.40;;
22024;SDS011;11176;51.448;6.650;2022-10-30T11:36:50;9.80;;;4.20;;
22024;SDS011;11176;51.448;6.650;2022-10-30T11:39:19;10.25;;;3.88;;
22024;SDS011;11176;51.448;6.650;2022-10-30T11:42:11;10.45;;;3.90;;
22024;SDS011;11176;51.448;6.650;2022-10-30T11:44:49;10.95;;;4.55;;
22024;SDS011;11176;51.448;6.650;2022-10-30T11:47:18;9.32;;;4.43;;
22024;SDS011;11176;51.448;6.650;2022-10-30T11:49:50;10.40;;;3.95;;
22024;SDS011;11176;51.448;6.650;2022-10-30T11:52:21;13.02;;;4.57;;
22024;SDS011;11176;51.448;6.650;2022-10-30T11:55:07;9.38;;;4.13;;
22024;SDS011;11176;51.448;6.650;2022-10-30T11:57:49;10.95;;;3.85;;
22024;SDS011;11176;51.448;6.650;2022-10-30T12:00:21;13.77;;;4.13;;
22024;SDS011;11176;51.448;6.650;2022-10-30T12:02:51;13.17;;;3.97;;
22024;SDS011;11176;51.448;6.650;2022-10-30T12:05:36;8.95;;;3.53;;
22024;SDS011;11176;51.448;6.650;2022-10-30T12:08:25;10.40;;;3.85;;
22024;SDS011;11176;51.448;6.650;2022-10-30T12:13:18;8.55;;;3.75;;
22024;SDS011;11176;51.448;6.650;2022-10-30T12:15:47;11.38;;;3.97;;
22024;SDS011;11176;51.448;6.650;2022-10-30T12:18:17;8.57;;;3.45;;
22024;SDS011;11176;51.448;6.650;2022-10-30T12:20:48;7.97;;;3.42;;
22024;SDS011;11176;51.448;6.650;2022-10-30T12:23:19;11.18;;;4.00;;
22024;SDS011;11176;51.448;6.650;2022-10-30T12:25:54;8.93;;;3.72;;
22024;SDS011;11176;51.448;6.650;2022-10-30T12:31:56;10.23;;;3.50;;
22024;SDS011;11176;51.448;6.650;2022-10-30T12:34:03;6.57;;;3.17;;
22024;SDS011;11176;51.448;6.650;2022-10-30T12:36:41;11.13;;;3.88;;
22024;SDS011;11176;51.448;6.650;2022-10-30T12:39:15;9.98;;;4.10;;
22024;SDS011;11176;51.448;6.650;2022-10-30T12:42:02;16.52;;;4.65;;
22024;SDS011;11176;51.448;6.650;2022-10-30T12:44:36;9.43;;;3.80;;
22024;SDS011;11176;51.448;6.650;2022-10-30T12:47:11;17.27;;;4.25;;
22024;SDS011;11176;51.448;6.650;2022-10-30T12:50:02;11.88;;;4.30;;
22024;SDS011;11176;51.448;6.650;2022-10-30T12:52:50;11.23;;;4.13;;
22024;SDS011;11176;51.448;6.650;2022-10-30T12:55:30;11.63;;;3.83;;
22024;SDS011;11176;51.448;6.650;2022-10-30T12:58:08;8.38;;;3.72;;
22024;SDS011;11176;51.448;6.650;2022-10-30T13:00:51;8.38;;;4.00;;
22024;SDS011;11176;51.448;6.650;2022-10-30T13:06:22;13.00;;;4.57;;
22024;SDS011;11176;51.448;6.650;2022-10-30T13:09:06;13.18;;;4.32;;
22024;SDS011;11176;51.448;6.650;2022-10-30T13:11:43;12.88;;;4.47;;
22024;SDS011;11176;51.448;6.650;2022-10-30T13:14:16;10.57;;;4.35;;
22024;SDS011;11176;51.448;6.650;2022-10-30T13:16:49;9.25;;;3.95;;
22024;SDS011;11176;51.448;6.650;2022-10-30T13:19:16;9.60;;;4.40;;
22024;SDS011;11176;51.448;6.650;2022-10-30T13:24:38;10.85;;;4.22;;
22024;SDS011;11176;51.448;6.650;2022-10-30T13:27:22;11.07;;;4.70;;
22024;SDS011;11176;51.448;6.650;2022-10-30T13:32:30;9.43;;;4.20;;
22024;SDS011;11176;51.448;6.650;2022-10-30T13:38:01;12.52;;;4.10;;
22024;SDS011;11176;51.448;6.650;2022-10-30T13:40:49;10.27;;;4.10;;
22024;SDS011;11176;51.448;6.650;2022-10-30T13:43:36;11.88;;;4.70;;
22024;SDS011;11176;51.448;6.650;2022-10-30T13:46:25;15.80;;;4.82;;
22024;SDS011;11176;51.448;6.650;2022-10-30T13:51:28;12.63;;;4.80;;
22024;SDS011;11176;51.448;6.650;2022-10-30T13:54:28;12.60;;;4.47;;
22024;SDS011;11176;51.448;6.650;2022-10-30T13:57:11;7.43;;;4.22;;
22024;SDS011;11176;51.448;6.650;2022-10-30T13:59:47;15.10;;;4.75;;
22024;SDS011;11176;51.448;6.650;2022-10-30T14:04:56;12.90;;;4.50;;
22024;SDS011;11176;51.448;6.650;2022-10-30T14:07:29;10.93;;;4.97;;
22024;SDS011;11176;51.448;6.650;2022-10-30T14:10:07;15.57;;;4.80;;
22024;SDS011;11176;51.448;6.650;2022-10-30T14:12:45;9.15;;;4.50;;
22024;SDS011;11176;51.448;6.650;2022-10-30T14:23:12;9.60;;;4.70;;
22024;SDS011;11176;51.448;6.650;2022-10-30T14:28:29;11.48;;;4.35;;
22024;SDS011;11176;51.448;6.650;2022-10-30T14:31:01;13.27;;;4.55;;
22024;SDS011;11176;51.448;6.650;2022-10-30T14:36:18;11.73;;;4.93;;
22024;SDS011;11176;51.448;6.650;2022-10-30T14:50:21;12.15;;;5.07;;
22024;SDS011;11176;51.448;6.650;2022-10-30T14:55:49;11.82;;;4.38;;
22024;SDS011;11176;51.448;6.650;2022-10-30T14:58:33;12.00;;;4.72;;
22024;SDS011;11176;51.448;6.650;2022-10-30T15:03:48;11.25;;;4.75;;
22024;SDS011;11176;51.448;6.650;2022-10-30T15:09:30;12.93;;;4.90;;
22024;SDS011;11176;51.448;6.650;2022-10-30T15:17:23;11.13;;;4.82;;
22024;SDS011;11176;51.448;6.650;2022-10-30T15:20:28;13.57;;;5.55;;
22024;SDS011;11176;51.448;6.650;2022-10-30T15:22:58;17.80;;;5.30;;
22024;SDS011;11176;51.448;6.650;2022-10-30T15:25:37;16.98;;;4.70;;
22024;SDS011;11176;51.448;6.650;2022-10-30T15:28:15;15.00;;;5.30;;
22024;SDS011;11176;51.448;6.650;2022-10-30T15:33:35;13.45;;;5.25;;
22024;SDS011;11176;51.448;6.650;2022-10-30T15:36:03;9.35;;;4.60;;
22024;SDS011;11176;51.448;6.650;2022-10-30T15:38:30;16.42;;;5.28;;
22024;SDS011;11176;51.448;6.650;2022-10-30T15:40:58;10.38;;;4.82;;
22024;SDS011;11176;51.448;6.650;2022-10-30T15:43:28;8.95;;;4.78;;
22024;SDS011;11176;51.448;6.650;2022-10-30T15:45:57;11.88;;;5.13;;
22024;SDS011;11176;51.448;6.650;2022-10-30T15:48:27;12.00;;;5.10;;
22024;SDS011;11176;51.448;6.650;2022-10-30T15:53:58;11.25;;;5.35;;
22024;SDS011;11176;51.448;6.650;2022-10-30T15:59:47;11.60;;;5.32;;
22024;SDS011;11176;51.448;6.650;2022-10-30T16:02:21;16.48;;;5.03;;
22024;SDS011;11176;51.448;6.650;2022-10-30T16:04:49;11.55;;;5.57;;
22024;SDS011;11176;51.448;6.650;2022-10-30T16:07:16;14.65;;;5.50;;
22024;SDS011;11176;51.448;6.650;2022-10-30T16:09:55;15.07;;;6.38;;
22024;SDS011;11176;51.448;6.650;2022-10-30T16:12:30;16.20;;;6.35;;
22024;SDS011;11176;51.448;6.650;2022-10-30T16:15:01;12.95;;;5.78;;
22024;SDS011;11176;51.448;6.650;2022-10-30T16:17:32;13.20;;;5.88;;
22024;SDS011;11176;51.448;6.650;2022-10-30T16:20:00;10.55;;;5.78;;
22024;SDS011;11176;51.448;6.650;2022-10-30T16:22:33;14.63;;;6.40;;
22024;SDS011;11176;51.448;6.650;2022-10-30T16:25:04;12.18;;;5.97;;
22024;SDS011;11176;51.448;6.650;2022-10-30T16:27:32;13.45;;;6.25;;
22024;SDS011;11176;51.448;6.650;2022-10-30T16:29:58;11.82;;;6.07;;
22024;SDS011;11176;51.448;6.650;2022-10-30T16:32:26;11.10;;;6.00;;
22024;SDS011;11176;51.448;6.650;2022-10-30T16:34:56;12.25;;;6.57;;
22024;SDS011;11176;51.448;6.650;2022-10-30T16:37:25;10.73;;;5.95;;
22024;SDS011;11176;51.448;6.650;2022-10-30T16:39:58;16.08;;;6.45;;
22024;SDS011;11176;51.448;6.650;2022-10-30T16:42:56;16.20;;;6.85;;
22024;SDS011;11176;51.448;6.650;2022-10-30T16:47:58;18.52;;;6.78;;
22024;SDS011;11176;51.448;6.650;2022-10-30T16:50:35;12.57;;;6.93;;
22024;SDS011;11176;51.448;6.650;2022-10-30T16:53:07;17.90;;;8.02;;
22024;SDS011;11176;51.448;6.650;2022-10-30T16:55:42;13.27;;;8.50;;
22024;SDS011;11176;51.448;6.650;2022-10-30T16:58:10;15.32;;;8.40;;
22024;SDS011;11176;51.448;6.650;2022-10-30T17:00:39;17.15;;;8.88;;
22024;SDS011;11176;51.448;6.650;2022-10-30T17:03:07;15.05;;;8.73;;
22024;SDS011;11176;51.448;6.650;2022-10-30T17:05:36;13.48;;;8.95;;
22024;SDS011;11176;51.448;6.650;2022-10-30T17:08:06;17.38;;;9.68;;
22024;SDS011;11176;51.448;6.650;2022-10-30T17:10:57;24.50;;;10.23;;
22024;SDS011;11176;51.448;6.650;2022-10-30T17:15:58;17.67;;;9.52;;
22024;SDS011;11176;51.448;6.650;2022-10-30T17:18:51;17.88;;;9.82;;
22024;SDS011;11176;51.448;6.650;2022-10-30T17:21:38;18.10;;;10.80;;
22024;SDS011;11176;51.448;6.650;2022-10-30T17:24:17;19.67;;;10.85;;
22024;SDS011;11176;51.448;6.650;2022-10-30T17:26:57;17.85;;;11.32;;
22024;SDS011;11176;51.448;6.650;2022-10-30T17:34:47;21.35;;;12.35;;
22024;SDS011;11176;51.448;6.650;2022-10-30T17:37:25;22.70;;;13.07;;
22024;SDS011;11176;51.448;6.650;2022-10-30T17:39:52;18.90;;;11.48;;
22024;SDS011;11176;51.448;6.650;2022-10-30T17:42:19;18.17;;;11.52;;